createdAt,value
2022-09-20T00:02:08.755Z,10.68
2022-09-20T00:04:38.478Z,10.70
2022-09-20T00:07:08.159Z,10.81
2022-09-20T00:09:37.855Z,10.86
2022-09-20T00:12:10.644Z,10.68
2022-09-20T00:14:40.233Z,10.60
2022-09-20T00:17:10.645Z,10.39
2022-09-20T00:19:40.295Z,10.49
2022-09-20T00:22:09.975Z,10.33
2022-09-20T00:24:39.568Z,10.56
2022-09-20T00:27:12.027Z,10.52
2022-09-20T00:29:42.216Z,10.65
2022-09-20T00:32:11.893Z,10.57
2022-09-20T00:34:53.974Z,10.52
2022-09-20T00:37:23.605Z,10.29
2022-09-20T00:39:53.228Z,10.45
2022-09-20T00:42:30.273Z,10.51
2022-09-20T00:45:01.173Z,10.05
2022-09-20T00:47:37.257Z,9.97
2022-09-20T00:50:17.063Z,9.97
2022-09-20T00:52:49.009Z,10.36
2022-09-20T00:55:19.743Z,10.48
2022-09-20T00:57:52.359Z,10.57
2022-09-20T01:00:22.262Z,10.06
2022-09-20T01:02:58.206Z,10.37
2022-09-20T01:05:31.438Z,10.50
2022-09-20T01:08:01.186Z,10.43
2022-09-20T01:10:30.941Z,10.57
2022-09-20T01:13:03.876Z,10.34
2022-09-20T01:15:36.062Z,10.14
2022-09-20T01:18:06.626Z,10.45
2022-09-20T01:20:39.126Z,10.41
2022-09-20T01:23:31.297Z,10.37
2022-09-20T01:26:30.015Z,10.51
2022-09-20T01:29:14.146Z,10.77
2022-09-20T01:31:49.620Z,10.62
2022-09-20T01:34:23.924Z,10.72
2022-09-20T01:36:58.073Z,10.43
2022-09-20T01:39:38.508Z,10.78
2022-09-20T01:42:10.521Z,10.63
2022-09-20T01:44:52.296Z,10.48
2022-09-20T01:47:34.063Z,10.66
2022-09-20T01:50:14.821Z,10.71
2022-09-20T01:53:11.636Z,10.60
2022-09-20T01:56:07.803Z,10.38
2022-09-20T01:59:23.302Z,10.63
2022-09-20T02:02:24.652Z,10.73
2022-09-20T02:05:35.930Z,10.61
2022-09-20T02:08:39.190Z,10.38
2022-09-20T02:11:15.146Z,10.39
2022-09-20T02:14:09.019Z,10.28
2022-09-20T02:16:51.465Z,10.42
2022-09-20T02:19:44.235Z,10.61
2022-09-20T02:22:27.006Z,10.48
2022-09-20T02:25:05.339Z,10.63
2022-09-20T02:27:43.955Z,10.62
2022-09-20T02:30:24.159Z,10.54
2022-09-20T02:33:20.522Z,10.60
2022-09-20T02:36:08.486Z,10.71
2022-09-20T02:38:52.643Z,10.68
2022-09-20T02:41:43.356Z,10.61
2022-09-20T02:44:24.947Z,10.49
2022-09-20T02:47:02.228Z,10.62
2022-09-20T02:49:40.847Z,10.63
2022-09-20T02:52:23.439Z,10.68
2022-09-20T02:55:00.474Z,10.69
2022-09-20T02:57:45.583Z,10.79
2022-09-20T03:00:24.605Z,10.68
2022-09-20T03:03:09.203Z,10.76
2022-09-20T03:05:53.845Z,10.68
2022-09-20T03:08:50.592Z,10.73
2022-09-20T03:11:30.320Z,10.72
2022-09-20T03:14:14.128Z,10.64
2022-09-20T03:16:54.469Z,10.60
2022-09-20T03:19:47.249Z,10.54
2022-09-20T03:22:26.502Z,10.48
2022-09-20T03:25:18.885Z,10.58
2022-09-20T03:28:01.858Z,10.46
2022-09-20T03:30:52.783Z,10.59
2022-09-20T03:33:36.673Z,10.55
2022-09-20T03:36:23.115Z,10.63
2022-09-20T03:39:18.725Z,10.61
2022-09-20T03:42:11.289Z,10.65
2022-09-20T03:44:58.011Z,10.60
2022-09-20T03:47:47.017Z,10.58
2022-09-20T03:50:43.032Z,10.58
2022-09-20T03:53:29.048Z,10.63
2022-09-20T03:56:30.415Z,10.67
2022-09-20T03:59:30.465Z,10.72
2022-09-20T04:02:20.562Z,10.57
2022-09-20T04:04:56.524Z,10.57
2022-09-20T04:07:32.469Z,10.53
2022-09-20T04:10:36.516Z,10.49
2022-09-20T04:13:34.556Z,10.43
2022-09-20T04:16:18.496Z,10.43
2022-09-20T04:18:56.995Z,10.53
2022-09-20T04:21:34.831Z,10.49
2022-09-20T04:24:12.544Z,10.64
2022-09-20T04:26:46.905Z,10.59
2022-09-20T04:29:33.800Z,10.54
2022-09-20T04:32:19.099Z,10.54
2022-09-20T04:35:09.062Z,10.53
2022-09-20T04:37:41.253Z,10.52
2022-09-20T04:40:25.650Z,10.56
2022-09-20T04:43:28.469Z,10.66
2022-09-20T04:46:33.148Z,10.45
2022-09-20T04:49:35.281Z,10.51
2022-09-20T04:52:35.983Z,10.59
2022-09-20T04:55:38.065Z,10.54
2022-09-20T04:58:43.410Z,10.59
2022-09-20T05:01:42.713Z,10.52
2022-09-20T05:05:02.038Z,10.45
2022-09-20T05:08:10.960Z,10.38
2022-09-20T05:11:06.687Z,10.40
2022-09-20T05:13:49.102Z,10.45
2022-09-20T05:16:24.684Z,10.41
2022-09-20T05:19:11.038Z,10.37
2022-09-20T05:22:02.385Z,10.42
2022-09-20T05:24:56.753Z,10.45
2022-09-20T05:27:43.510Z,10.37
2022-09-20T05:30:23.546Z,10.34
2022-09-20T05:33:01.019Z,10.36
2022-09-20T05:35:36.462Z,10.34
2022-09-20T05:38:16.734Z,10.46
2022-09-20T05:41:10.762Z,10.37
2022-09-20T05:43:53.071Z,10.32
2022-09-20T05:46:36.343Z,10.35
2022-09-20T05:49:16.790Z,10.25
2022-09-20T05:52:02.913Z,10.21
2022-09-20T05:55:00.101Z,10.29
2022-09-20T05:57:42.710Z,10.40
2022-09-20T06:00:17.339Z,10.27
2022-09-20T06:02:57.096Z,10.22
2022-09-20T06:05:36.575Z,10.35
2022-09-20T06:08:33.658Z,10.52
2022-09-20T06:11:24.124Z,10.32
2022-09-20T06:14:16.044Z,10.46
2022-09-20T06:16:54.443Z,10.53
2022-09-20T06:19:35.047Z,10.67
2022-09-20T06:22:14.565Z,10.72
2022-09-20T06:24:50.333Z,10.61
2022-09-20T06:27:26.652Z,10.76
2022-09-20T06:30:03.824Z,10.84
2022-09-20T06:32:34.788Z,10.68
2022-09-20T06:35:06.023Z,10.70
2022-09-20T06:37:59.923Z,11.10
2022-09-20T06:40:49.720Z,11.14
2022-09-20T06:43:19.530Z,11.12
2022-09-20T06:45:51.890Z,10.73
2022-09-20T06:48:21.635Z,10.79
2022-09-20T06:50:52.450Z,10.71
2022-09-20T06:53:27.603Z,10.55
2022-09-20T06:55:57.629Z,10.35
2022-09-20T06:58:27.319Z,10.36
2022-09-20T07:00:59.635Z,10.21
2022-09-20T07:03:29.321Z,10.22
2022-09-20T07:06:00.609Z,10.60
2022-09-20T07:08:30.488Z,10.96
2022-09-20T07:11:00.248Z,11.61
2022-09-20T07:13:30.148Z,11.94
2022-09-20T07:16:06.593Z,11.70
2022-09-20T07:18:37.095Z,11.58
2022-09-20T07:21:07.104Z,11.55
2022-09-20T07:23:36.836Z,11.49
2022-09-20T07:26:06.669Z,11.55
2022-09-20T07:28:37.922Z,11.46
2022-09-20T07:31:10.751Z,11.32
2022-09-20T07:33:40.478Z,11.41
2022-09-20T07:36:10.882Z,11.53
2022-09-20T07:38:40.800Z,11.35
2022-09-20T07:41:11.417Z,11.35
2022-09-20T07:43:41.963Z,11.88
2022-09-20T07:46:16.092Z,11.99
2022-09-20T07:48:45.793Z,12.09
2022-09-20T07:51:17.030Z,12.21
2022-09-20T07:53:46.712Z,12.21
2022-09-20T07:56:18.501Z,12.58
2022-09-20T07:58:52.164Z,12.52
2022-09-20T08:01:24.881Z,12.69
2022-09-20T08:03:57.170Z,12.88
2022-09-20T08:06:27.412Z,13.21
2022-09-20T08:08:58.197Z,13.74
2022-09-20T08:11:29.910Z,13.21
2022-09-20T08:14:09.463Z,12.75
2022-09-20T08:16:46.655Z,12.42
2022-09-20T08:19:19.546Z,12.48
2022-09-20T08:21:49.986Z,12.76
2022-09-20T08:24:20.314Z,13.25
2022-09-20T08:26:51.233Z,13.52
2022-09-20T08:29:21.017Z,13.55
2022-09-20T08:31:55.852Z,13.85
2022-09-20T08:34:25.479Z,14.37
2022-09-20T08:36:56.755Z,14.53
2022-09-20T08:42:25.203Z,14.44
2022-09-20T08:44:59.440Z,14.42
2022-09-20T08:47:35.502Z,14.13
2022-09-20T08:50:09.539Z,14.19
2022-09-20T08:52:42.542Z,14.19
2022-09-20T08:55:18.156Z,13.83
2022-09-20T08:57:52.135Z,13.78
2022-09-20T09:00:24.247Z,13.76
2022-09-20T09:02:58.993Z,13.53
2022-09-20T09:05:35.331Z,13.89
2022-09-20T09:08:12.122Z,13.98
2022-09-20T09:10:43.320Z,13.98
2022-09-20T09:13:23.856Z,14.42
2022-09-20T09:15:58.681Z,14.63
2022-09-20T09:18:36.214Z,14.53
2022-09-20T09:21:07.890Z,14.43
2022-09-20T09:23:44.218Z,14.13
2022-09-20T09:26:23.900Z,14.03
2022-09-20T09:29:12.324Z,13.87
2022-09-20T09:31:42.102Z,13.47
2022-09-20T09:34:31.202Z,13.63
2022-09-20T09:37:01.563Z,13.39
2022-09-20T09:39:33.173Z,13.33
2022-09-20T09:42:03.707Z,13.26
2022-09-20T09:44:35.666Z,13.30
2022-09-20T09:47:06.262Z,13.34
2022-09-20T09:49:38.570Z,13.34
2022-09-20T09:52:15.904Z,13.32
2022-09-20T09:54:50.647Z,13.17
2022-09-20T09:57:52.079Z,13.09
2022-09-20T10:00:24.109Z,13.53
2022-09-20T10:03:10.241Z,13.74
2022-09-20T10:05:56.066Z,14.57
2022-09-20T10:08:36.464Z,14.94
2022-09-20T10:11:16.598Z,15.48
2022-09-20T10:13:55.782Z,15.17
2022-09-20T10:16:35.870Z,14.68
2022-09-20T10:19:12.721Z,14.57
2022-09-20T10:21:52.940Z,14.44
2022-09-20T10:24:35.545Z,14.10
2022-09-20T10:27:34.440Z,14.14
2022-09-20T10:30:11.971Z,14.36
2022-09-20T10:32:59.972Z,14.46
2022-09-20T10:35:35.956Z,14.79
2022-09-20T10:38:19.783Z,15.60
2022-09-20T10:41:18.872Z,16.18
2022-09-20T10:44:05.137Z,16.92
2022-09-20T10:46:49.242Z,17.31
2022-09-20T10:49:35.346Z,16.94
2022-09-20T10:52:26.845Z,16.09
2022-09-20T10:55:11.582Z,15.34
2022-09-20T10:58:16.735Z,14.90
2022-09-20T11:00:53.870Z,14.77
2022-09-20T11:03:36.197Z,14.50
2022-09-20T11:06:17.721Z,14.17
2022-09-20T11:08:51.822Z,14.18
2022-09-20T11:11:26.761Z,14.27
2022-09-20T11:14:04.559Z,14.52
2022-09-20T11:16:41.979Z,14.59
2022-09-20T11:19:23.565Z,15.73
2022-09-20T11:21:58.610Z,16.53
2022-09-20T11:24:33.205Z,16.81
2022-09-20T11:27:13.849Z,17.27
2022-09-20T11:29:50.210Z,17.57
2022-09-20T11:32:28.850Z,17.82
2022-09-20T11:35:04.800Z,18.34
2022-09-20T11:37:39.395Z,18.45
2022-09-20T11:40:20.185Z,18.18
2022-09-20T11:42:54.180Z,17.42
2022-09-20T11:45:28.281Z,16.96
2022-09-20T11:48:03.147Z,16.41
2022-09-20T11:51:08.842Z,15.92
2022-09-20T11:54:08.409Z,15.81
2022-09-20T11:56:38.077Z,15.50
2022-09-20T11:59:30.351Z,15.58
2022-09-20T12:02:03.048Z,15.99
2022-09-20T12:04:36.011Z,15.82
2022-09-20T12:07:12.473Z,15.93
2022-09-20T12:09:47.199Z,15.86
2022-09-20T12:12:20.741Z,15.71
2022-09-20T12:15:01.399Z,15.85
2022-09-20T12:18:04.369Z,15.94
2022-09-20T12:21:18.937Z,16.18
2022-09-20T12:24:20.047Z,16.54
2022-09-20T12:26:51.978Z,17.01
2022-09-20T12:29:54.897Z,17.03
2022-09-20T12:32:49.321Z,17.10
2022-09-20T12:35:58.315Z,17.03
2022-09-20T12:38:37.696Z,16.90
2022-09-20T12:41:14.349Z,17.23
2022-09-20T12:44:07.126Z,17.77
2022-09-20T12:46:41.204Z,17.36
2022-09-20T12:49:49.631Z,17.03
2022-09-20T12:52:45.297Z,16.80
2022-09-20T12:55:30.090Z,16.54
2022-09-20T12:58:03.884Z,16.54
2022-09-20T13:00:42.878Z,16.22
2022-09-20T13:03:28.584Z,16.15
2022-09-20T13:06:28.571Z,15.93
2022-09-20T13:09:10.587Z,15.83
2022-09-20T13:11:44.653Z,16.23
2022-09-20T13:14:17.485Z,16.29
2022-09-20T13:16:55.231Z,16.09
2022-09-20T13:19:28.871Z,15.83
2022-09-20T13:22:06.126Z,15.69
2022-09-20T13:24:41.865Z,15.70
2022-09-20T13:27:19.848Z,15.64
2022-09-20T13:29:49.829Z,15.66
2022-09-20T13:32:20.454Z,15.65
2022-09-20T13:35:09.662Z,15.93
2022-09-20T13:37:49.552Z,16.06
2022-09-20T13:40:21.294Z,15.90
2022-09-20T13:43:12.989Z,15.85
2022-09-20T13:45:45.210Z,16.09
2022-09-20T13:48:15.157Z,16.25
2022-09-20T13:50:48.040Z,16.06
2022-09-20T13:53:40.525Z,15.89
2022-09-20T13:56:14.509Z,15.54
2022-09-20T13:58:45.409Z,15.41
2022-09-20T14:01:26.854Z,15.16
2022-09-20T14:03:56.881Z,15.19
2022-09-20T14:06:29.967Z,15.17
2022-09-20T14:09:10.417Z,14.90
2022-09-20T14:11:42.603Z,14.97
2022-09-20T14:14:16.445Z,14.94
2022-09-20T14:16:49.478Z,14.80
2022-09-20T14:19:21.445Z,14.75
2022-09-20T14:21:51.557Z,14.68
2022-09-20T14:24:35.654Z,14.46
2022-09-20T14:27:09.554Z,14.57
2022-09-20T14:29:44.223Z,14.53
2022-09-20T14:32:27.521Z,14.40
2022-09-20T14:35:05.019Z,14.17
2022-09-20T14:37:38.146Z,14.12
2022-09-20T14:40:22.333Z,13.93
2022-09-20T14:42:55.365Z,13.86
2022-09-20T14:45:28.778Z,13.87
2022-09-20T14:48:06.685Z,13.83
2022-09-20T14:50:42.304Z,13.78
2022-09-20T14:53:29.664Z,13.73
2022-09-20T14:56:13.460Z,13.76
2022-09-20T14:59:05.755Z,13.67
2022-09-20T15:01:36.357Z,13.74
2022-09-20T15:04:11.026Z,13.65
2022-09-20T15:06:43.119Z,13.75
2022-09-20T15:09:14.888Z,13.79
2022-09-20T15:11:47.088Z,13.71
2022-09-20T15:14:17.025Z,13.74
2022-09-20T15:16:46.861Z,13.70
2022-09-20T15:19:16.923Z,13.84
2022-09-20T15:21:46.785Z,13.89
2022-09-20T15:24:17.956Z,13.83
2022-09-20T15:26:50.215Z,13.80
2022-09-20T15:29:21.034Z,13.79
2022-09-20T15:31:51.571Z,13.74
2022-09-20T15:34:21.272Z,13.79
2022-09-20T15:36:51.629Z,13.72
2022-09-20T15:39:22.289Z,13.56
2022-09-20T15:41:55.279Z,13.75
2022-09-20T15:44:25.060Z,13.84
2022-09-20T15:46:55.233Z,13.78
2022-09-20T15:49:24.892Z,13.74
2022-09-20T15:51:54.605Z,13.79
2022-09-20T15:54:26.083Z,13.88
2022-09-20T15:56:58.565Z,13.82
2022-09-20T15:59:29.432Z,13.76
2022-09-20T16:01:59.709Z,13.77
2022-09-20T16:04:30.129Z,13.77
2022-09-20T16:06:59.840Z,13.66
2022-09-20T16:09:29.502Z,13.71
2022-09-20T16:12:01.794Z,13.54
2022-09-20T16:14:31.397Z,13.53
2022-09-20T16:17:01.083Z,13.46
2022-09-20T16:19:30.714Z,13.39
2022-09-20T16:22:00.545Z,13.30
2022-09-20T16:24:31.927Z,13.30
2022-09-20T16:27:06.297Z,13.25
2022-09-20T16:29:36.927Z,13.21
2022-09-20T16:32:06.796Z,13.14
2022-09-20T16:34:38.248Z,13.06
2022-09-20T16:37:10.111Z,13.03
2022-09-20T16:39:42.013Z,12.98
2022-09-20T16:42:15.461Z,13.01
2022-09-20T16:44:45.847Z,12.94
2022-09-20T16:47:22.335Z,12.89
2022-09-20T16:49:54.376Z,12.90
2022-09-20T16:52:26.556Z,12.87
2022-09-20T16:54:56.250Z,12.86
2022-09-20T16:57:28.986Z,12.85
2022-09-20T16:59:59.100Z,12.84
2022-09-20T17:02:28.811Z,12.84
2022-09-20T17:04:58.524Z,12.73
2022-09-20T17:07:28.139Z,12.66
2022-09-20T17:10:01.451Z,12.67
2022-09-20T17:12:34.594Z,12.59
2022-09-20T17:15:04.243Z,12.50
2022-09-20T17:17:34.175Z,12.50
2022-09-20T17:20:05.976Z,12.44
2022-09-20T17:22:35.873Z,12.46
2022-09-20T17:25:05.987Z,12.56
2022-09-20T17:27:39.898Z,12.54
2022-09-20T17:30:12.007Z,12.56
2022-09-20T17:32:45.882Z,12.55
2022-09-20T17:35:16.652Z,12.59
2022-09-20T17:37:46.265Z,12.56
2022-09-20T17:40:16.493Z,12.44
2022-09-20T17:42:48.788Z,12.51
2022-09-20T17:45:18.907Z,12.38
2022-09-20T17:47:48.587Z,12.28
2022-09-20T17:50:18.210Z,12.22
2022-09-20T17:52:48.765Z,12.32
2022-09-20T17:55:18.465Z,12.41
2022-09-20T17:57:50.760Z,12.33
2022-09-20T18:00:20.501Z,12.29
2022-09-20T18:02:50.156Z,12.21
2022-09-20T18:05:19.833Z,12.14
2022-09-20T18:07:49.478Z,12.06
2022-09-20T18:10:19.231Z,11.96
2022-09-20T18:12:51.488Z,11.89
2022-09-20T18:15:21.141Z,11.86
2022-09-20T18:17:54.432Z,11.73
2022-09-20T18:20:24.202Z,11.75
2022-09-20T18:22:53.828Z,11.56
2022-09-20T18:25:24.225Z,11.55
2022-09-20T18:27:57.000Z,11.55
2022-09-20T18:30:26.687Z,11.43
2022-09-20T18:32:56.347Z,11.51
2022-09-20T18:35:26.064Z,11.41
2022-09-20T18:37:55.806Z,11.47
2022-09-20T18:40:25.570Z,11.54
2022-09-20T18:43:03.722Z,11.30
2022-09-20T18:45:34.988Z,11.15
2022-09-20T18:48:07.631Z,11.45
2022-09-20T18:50:37.384Z,11.23
2022-09-20T18:53:07.363Z,11.37
2022-09-20T18:55:37.626Z,11.28
2022-09-20T18:58:12.347Z,10.99
2022-09-20T19:00:42.506Z,10.97
2022-09-20T19:03:20.607Z,10.86
2022-09-20T19:05:54.557Z,10.92
2022-09-20T19:08:34.461Z,10.88
2022-09-20T19:11:07.700Z,10.86
2022-09-20T19:13:46.046Z,10.91
2022-09-20T19:16:22.101Z,10.63
2022-09-20T19:19:16.430Z,10.47
2022-09-20T19:21:57.750Z,10.71
2022-09-20T19:24:49.129Z,10.70
2022-09-20T19:27:19.261Z,10.49
2022-09-20T19:29:52.829Z,10.61
2022-09-20T19:32:26.354Z,10.61
2022-09-20T19:35:01.874Z,10.64
2022-09-20T19:37:39.899Z,10.34
2022-09-20T19:40:27.265Z,10.22
2022-09-20T19:43:13.326Z,10.27
2022-09-20T19:45:55.644Z,10.41
2022-09-20T19:48:33.398Z,10.47
2022-09-20T19:51:08.167Z,10.48
2022-09-20T19:53:39.435Z,10.34
2022-09-20T19:56:21.718Z,10.32
2022-09-20T19:58:53.233Z,10.28
2022-09-20T20:01:27.897Z,10.37
2022-09-20T20:03:58.394Z,10.28
2022-09-20T20:06:35.315Z,10.21
2022-09-20T20:09:12.252Z,9.95
2022-09-20T20:11:50.183Z,10.30
2022-09-20T20:14:27.852Z,10.17
2022-09-20T20:17:07.932Z,10.08
2022-09-20T20:19:53.933Z,10.18
2022-09-20T20:22:41.032Z,10.08
2022-09-20T20:25:26.486Z,9.91
2022-09-20T20:27:56.161Z,9.99
2022-09-20T20:30:25.901Z,9.93
2022-09-20T20:33:00.957Z,9.77
2022-09-20T20:35:30.623Z,9.81
2022-09-20T20:38:00.282Z,9.84
2022-09-20T20:40:30.130Z,9.75
2022-09-20T20:43:02.347Z,9.84
2022-09-20T20:45:32.516Z,9.96
2022-09-20T20:48:05.160Z,9.90
2022-09-20T20:50:35.520Z,9.60
2022-09-20T20:53:06.844Z,9.72
2022-09-20T20:55:36.592Z,9.65
2022-09-20T20:58:07.510Z,9.51
2022-09-20T21:00:37.150Z,9.41
2022-09-20T21:03:11.148Z,9.59
2022-09-20T21:05:40.844Z,9.40
2022-09-20T21:08:11.425Z,9.36
2022-09-20T21:10:41.142Z,9.23
2022-09-20T21:13:11.117Z,9.06
2022-09-20T21:15:41.703Z,8.95
2022-09-20T21:18:13.938Z,9.20
2022-09-20T21:20:43.545Z,9.02
2022-09-20T21:23:13.131Z,9.27
2022-09-20T21:25:42.743Z,9.29
2022-09-20T21:28:12.387Z,9.51
2022-09-20T21:30:42.028Z,9.37
2022-09-20T21:33:14.365Z,9.27
2022-09-20T21:35:43.938Z,9.37
2022-09-20T21:38:13.580Z,9.27
2022-09-20T21:40:43.464Z,9.26
2022-09-20T21:43:14.157Z,9.30
2022-09-20T21:45:45.437Z,9.41
2022-09-20T21:48:17.654Z,9.24
2022-09-20T21:50:47.660Z,9.29
2022-09-20T21:53:19.291Z,9.24
2022-09-20T21:55:48.971Z,9.20
2022-09-20T21:58:18.564Z,8.99
2022-09-20T22:00:59.159Z,8.63
2022-09-20T22:03:33.102Z,8.53
2022-09-20T22:06:11.142Z,8.72
2022-09-20T22:08:42.249Z,8.85
2022-09-20T22:11:14.909Z,8.59
2022-09-20T22:13:45.576Z,8.55
2022-09-20T22:16:18.962Z,8.58
2022-09-20T22:18:51.527Z,8.92
2022-09-20T22:21:23.892Z,8.74
2022-09-20T22:23:57.741Z,8.56
2022-09-20T22:26:30.254Z,8.63
2022-09-20T22:29:00.546Z,8.63
2022-09-20T22:31:32.168Z,8.63
2022-09-20T22:34:06.204Z,8.41
2022-09-20T22:36:38.544Z,8.21
2022-09-20T22:39:10.201Z,8.53
2022-09-20T22:41:41.345Z,8.59
2022-09-20T22:44:11.563Z,8.80
2022-09-20T22:46:41.649Z,9.01
2022-09-20T22:49:14.116Z,8.96
2022-09-20T22:51:43.865Z,8.17
2022-09-20T22:54:16.214Z,8.67
2022-09-20T22:56:45.861Z,8.34
2022-09-20T22:59:17.065Z,8.41
2022-09-20T23:01:48.835Z,8.67
2022-09-20T23:04:22.417Z,8.57
2022-09-20T23:06:55.162Z,8.38
2022-09-20T23:09:27.505Z,8.39
2022-09-20T23:11:57.182Z,8.55
2022-09-20T23:14:26.809Z,8.25
2022-09-20T23:16:56.490Z,8.53
2022-09-20T23:19:28.894Z,8.82
2022-09-20T23:21:58.570Z,8.72
2022-09-20T23:24:28.239Z,8.40
2022-09-20T23:26:57.904Z,8.37
2022-09-20T23:29:28.006Z,8.54
2022-09-20T23:31:57.752Z,8.72
2022-09-20T23:34:30.028Z,8.48
2022-09-20T23:36:59.700Z,8.59
2022-09-20T23:39:29.572Z,8.73
2022-09-20T23:41:59.165Z,8.78
2022-09-20T23:44:28.860Z,8.88
2022-09-20T23:46:58.530Z,8.90
2022-09-20T23:49:30.770Z,8.64
2022-09-20T23:52:00.463Z,8.71
2022-09-20T23:54:30.081Z,8.56
2022-09-20T23:56:59.703Z,8.69
2022-09-20T23:59:29.360Z,8.63
